createdAt,value
2024-05-09T00:00:56.835Z,7.00
2024-05-09T00:04:01.003Z,12.18
2024-05-09T00:07:05.075Z,12.32
2024-05-09T00:10:14.704Z,14.00
2024-05-09T00:13:26.127Z,13.93
2024-05-09T00:16:32.925Z,13.30
2024-05-09T00:19:36.825Z,21.27
2024-05-09T00:22:40.746Z,23.90
2024-05-09T00:25:46.155Z,23.30
2024-05-09T00:28:50.158Z,26.55
2024-05-09T00:34:57.944Z,76.05
2024-05-09T00:38:02.316Z,20.40
2024-05-09T00:41:06.124Z,15.35
2024-05-09T00:44:10.064Z,14.77
2024-05-09T00:50:22.764Z,31.13
2024-05-09T00:53:34.891Z,27.58
2024-05-09T00:56:38.855Z,29.15
2024-05-09T00:59:42.641Z,22.50
2024-05-09T01:02:46.215Z,28.48
2024-05-09T01:05:49.914Z,23.47
2024-05-09T01:08:53.656Z,26.85
2024-05-09T01:11:57.389Z,22.20
2024-05-09T01:15:00.902Z,28.43
2024-05-09T01:18:13.816Z,17.00
2024-05-09T01:21:17.896Z,17.88
2024-05-09T01:24:21.389Z,15.37
2024-05-09T01:27:25.311Z,8.68
2024-05-09T01:30:34.413Z,12.95
2024-05-09T01:33:40.698Z,9.50
2024-05-09T01:36:44.214Z,14.38
2024-05-09T01:39:47.756Z,14.02
2024-05-09T01:42:51.362Z,14.25
2024-05-09T01:45:55.082Z,8.05
2024-05-09T01:48:58.656Z,7.93
2024-05-09T01:52:02.195Z,7.15
2024-05-09T01:55:10.349Z,6.20
2024-05-09T01:58:14.938Z,5.25
2024-05-09T02:01:18.702Z,8.95
2024-05-09T02:04:22.480Z,6.47
2024-05-09T02:07:26.608Z,8.25
2024-05-09T02:10:32.796Z,6.90
2024-05-09T02:13:37.107Z,3.30
2024-05-09T02:16:40.688Z,4.22
2024-05-09T02:19:44.272Z,5.47
2024-05-09T02:22:47.773Z,4.35
2024-05-09T02:25:51.258Z,4.38
2024-05-09T02:28:54.769Z,5.50
2024-05-09T02:31:58.343Z,5.60
2024-05-09T02:35:02.091Z,4.72
2024-05-09T02:38:06.459Z,5.17
2024-05-09T02:41:11.214Z,6.80
2024-05-09T02:44:14.780Z,3.83
2024-05-09T02:47:18.451Z,4.97
2024-05-09T02:50:29.856Z,6.60
2024-05-09T02:53:40.767Z,6.65
2024-05-09T02:56:44.542Z,3.17
2024-05-09T02:59:48.769Z,3.27
2024-05-09T03:02:52.637Z,3.22
2024-05-09T03:05:56.259Z,3.60
2024-05-09T03:08:59.713Z,4.95
2024-05-09T03:12:03.491Z,3.65
2024-05-09T03:15:07.497Z,4.63
2024-05-09T03:18:12.325Z,3.70
2024-05-09T03:21:16.341Z,2.70
2024-05-09T03:24:19.809Z,3.83
2024-05-09T03:27:25.549Z,8.10
2024-05-09T03:30:36.769Z,2.70
2024-05-09T03:33:45.392Z,4.93
2024-05-09T03:36:49.083Z,5.20
2024-05-09T03:39:52.539Z,5.35
2024-05-09T03:42:56.080Z,6.65
2024-05-09T03:45:59.641Z,6.65
2024-05-09T03:49:03.264Z,8.57
2024-05-09T03:52:07.279Z,6.30
2024-05-09T03:55:10.815Z,5.47
2024-05-09T03:58:15.138Z,11.57
2024-05-09T04:01:18.862Z,9.30
2024-05-09T04:04:22.489Z,14.50
2024-05-09T04:07:26.059Z,12.97
2024-05-09T04:10:33.881Z,14.10
2024-05-09T04:13:38.461Z,9.40
2024-05-09T04:16:42.068Z,9.57
2024-05-09T04:19:45.655Z,12.83
2024-05-09T04:22:49.686Z,7.53
2024-05-09T04:25:53.435Z,8.05
2024-05-09T04:28:57.111Z,8.00
2024-05-09T04:32:00.817Z,8.27
2024-05-09T04:35:04.593Z,10.77
2024-05-09T04:38:09.083Z,11.23
2024-05-09T04:41:12.592Z,7.68
2024-05-09T04:44:16.386Z,5.75
2024-05-09T04:47:20.238Z,7.97
2024-05-09T04:50:33.506Z,9.48
2024-05-09T04:53:41.295Z,5.75
2024-05-09T04:56:44.953Z,5.53
2024-05-09T04:59:48.390Z,6.00
2024-05-09T05:02:52.201Z,5.75
2024-05-09T05:05:57.419Z,4.13
2024-05-09T05:09:02.301Z,6.10
2024-05-09T05:12:32.306Z,5.95
2024-05-09T05:15:37.531Z,5.80
2024-05-09T05:21:48.765Z,5.10
2024-05-09T05:24:52.521Z,3.78
2024-05-09T05:27:56.363Z,6.78
2024-05-09T05:30:59.771Z,6.38
2024-05-09T05:34:03.414Z,5.47
2024-05-09T05:37:07.063Z,6.00
2024-05-09T05:40:14.641Z,2.90
2024-05-09T05:43:21.271Z,2.47
2024-05-09T05:46:24.931Z,4.07
2024-05-09T05:49:28.699Z,4.82
2024-05-09T05:52:32.245Z,2.03
2024-05-09T05:55:36.154Z,3.50
2024-05-09T05:58:40.027Z,2.58
2024-05-09T06:01:43.609Z,4.60
2024-05-09T06:04:47.185Z,5.93
2024-05-09T06:07:50.736Z,6.28
2024-05-09T06:10:54.354Z,6.13
2024-05-09T06:13:58.007Z,3.97
2024-05-09T06:17:01.729Z,4.77
2024-05-09T06:20:11.046Z,4.57
2024-05-09T06:23:16.894Z,3.45
2024-05-09T06:26:20.491Z,5.20
2024-05-09T06:29:24.178Z,3.60
2024-05-09T06:32:28.356Z,4.30
2024-05-09T06:35:32.034Z,6.05
2024-05-09T06:38:35.653Z,3.57
2024-05-09T06:41:39.346Z,7.10
2024-05-09T06:44:43.025Z,3.63
2024-05-09T06:47:46.774Z,4.20
2024-05-09T06:50:51.003Z,5.53
2024-05-09T06:53:55.692Z,7.45
2024-05-09T06:56:59.301Z,4.90
2024-05-09T07:00:03.726Z,4.23
2024-05-09T07:06:15.982Z,4.80
2024-05-09T07:09:20.781Z,8.85
2024-05-09T07:12:25.567Z,9.55
2024-05-09T07:15:29.271Z,8.98
2024-05-09T07:18:32.954Z,4.47
2024-05-09T07:21:36.790Z,4.78
2024-05-09T07:24:40.224Z,7.18
2024-05-09T07:27:43.681Z,16.98
2024-05-09T07:30:47.195Z,8.25
2024-05-09T07:33:51.051Z,7.40
2024-05-09T07:36:54.595Z,7.50
2024-05-09T07:39:58.177Z,7.23
2024-05-09T07:43:01.678Z,7.10
2024-05-09T07:47:04.495Z,5.43
2024-05-09T07:53:33.279Z,4.70
2024-05-09T07:56:00.860Z,6.53
2024-05-09T07:59:04.715Z,6.07
2024-05-09T08:02:08.679Z,16.60
2024-05-09T08:05:12.499Z,5.75
2024-05-09T08:08:16.233Z,5.95
2024-05-09T08:11:21.241Z,5.60
2024-05-09T08:14:24.785Z,5.85
2024-05-09T08:17:28.660Z,7.22
2024-05-09T08:20:35.244Z,7.63
2024-05-09T08:23:40.310Z,6.43
2024-05-09T08:26:43.775Z,8.95
2024-05-09T08:29:47.750Z,4.72
2024-05-09T08:32:51.515Z,5.30
2024-05-09T08:35:55.180Z,8.45
2024-05-09T08:38:58.727Z,8.00
2024-05-09T08:42:03.303Z,9.60
2024-05-09T08:45:07.536Z,5.05
2024-05-09T08:51:15.439Z,8.30
2024-05-09T08:54:20.564Z,7.28
2024-05-09T08:57:24.379Z,5.40
2024-05-09T09:00:36.327Z,10.93
2024-05-09T09:03:42.320Z,5.75
2024-05-09T09:06:46.142Z,8.13
2024-05-09T09:09:51.371Z,8.75
2024-05-09T09:13:01.346Z,6.65
2024-05-09T09:16:05.109Z,7.18
2024-05-09T09:19:09.020Z,7.40
2024-05-09T09:22:13.137Z,6.20
2024-05-09T09:25:17.004Z,5.70
2024-05-09T09:28:24.294Z,8.60
2024-05-09T09:31:27.915Z,4.85
2024-05-09T09:34:35.054Z,6.35
2024-05-09T09:37:39.547Z,12.13
2024-05-09T09:40:49.639Z,8.43
2024-05-09T09:43:55.431Z,7.28
2024-05-09T09:47:03.987Z,4.00
2024-05-09T09:50:14.225Z,9.45
2024-05-09T09:53:20.951Z,6.80
2024-05-09T09:56:26.326Z,5.97
2024-05-09T09:59:31.157Z,4.32
2024-05-09T10:02:34.712Z,4.65
2024-05-09T10:05:39.877Z,3.30
2024-05-09T10:08:47.692Z,4.10
2024-05-09T10:11:59.675Z,3.58
2024-05-09T10:15:10.924Z,5.38
2024-05-09T10:18:15.690Z,5.28
2024-05-09T10:21:20.453Z,12.10
2024-05-09T10:24:24.058Z,12.35
2024-05-09T10:27:31.316Z,7.75
2024-05-09T10:30:36.353Z,4.20
2024-05-09T10:33:49.192Z,5.88
2024-05-09T10:36:56.804Z,8.95
2024-05-09T10:40:01.306Z,8.65
2024-05-09T10:43:06.738Z,6.20
2024-05-09T10:46:12.089Z,5.03
2024-05-09T10:49:16.421Z,8.63
2024-05-09T10:52:24.341Z,6.60
2024-05-09T10:55:28.422Z,7.13
2024-05-09T10:58:32.817Z,6.38
2024-05-09T11:01:37.581Z,6.35
2024-05-09T11:04:41.539Z,4.07
2024-05-09T11:07:45.496Z,2.45
2024-05-09T11:10:50.719Z,4.97
2024-05-09T11:13:55.262Z,5.45
2024-05-09T11:17:01.111Z,5.03
2024-05-09T11:20:13.314Z,6.80
2024-05-09T11:23:22.694Z,6.28
2024-05-09T11:26:30.078Z,7.68
2024-05-09T11:29:41.074Z,14.15
2024-05-09T11:32:45.123Z,10.90
2024-05-09T11:35:48.982Z,6.90
2024-05-09T11:38:52.700Z,21.33
2024-05-09T11:41:56.197Z,6.13
2024-05-09T11:45:00.038Z,16.70
2024-05-09T11:48:04.975Z,8.30
2024-05-09T11:51:08.944Z,7.25
2024-05-09T11:54:12.920Z,13.85
2024-05-09T11:57:16.841Z,10.45
2024-05-09T12:00:29.556Z,13.60
2024-05-09T12:03:40.528Z,12.55
2024-05-09T12:06:46.347Z,16.20
2024-05-09T12:09:49.980Z,11.77
2024-05-09T12:12:54.838Z,9.15
2024-05-09T12:15:58.536Z,9.13
2024-05-09T12:19:02.514Z,12.77
2024-05-09T12:22:06.249Z,8.27
2024-05-09T12:25:10.255Z,10.70
2024-05-09T12:28:13.796Z,10.10
2024-05-09T12:31:17.548Z,11.32
2024-05-09T12:34:21.433Z,10.90
2024-05-09T12:37:25.115Z,7.70
2024-05-09T12:40:35.647Z,7.20
2024-05-09T12:43:41.981Z,15.20
2024-05-09T12:46:46.606Z,15.20
2024-05-09T12:49:50.194Z,15.55
2024-05-09T12:52:53.709Z,8.23
2024-05-09T12:56:01.823Z,6.70
2024-05-09T12:59:06.870Z,4.65
2024-05-09T13:02:10.751Z,9.40
2024-05-09T13:05:14.998Z,7.28
2024-05-09T13:08:18.823Z,10.25
2024-05-09T13:11:22.625Z,15.77
2024-05-09T13:14:26.612Z,10.07
2024-05-09T13:17:30.656Z,10.93
2024-05-09T13:20:35.919Z,12.20
2024-05-09T13:23:42.062Z,19.55
2024-05-09T13:26:45.686Z,12.10
2024-05-09T13:29:49.198Z,11.23
2024-05-09T13:32:53.434Z,15.13
2024-05-09T13:35:57.845Z,14.95
2024-05-09T13:39:01.586Z,12.82
2024-05-09T13:42:05.387Z,20.35
2024-05-09T13:45:09.566Z,13.27
2024-05-09T13:48:13.497Z,12.88
2024-05-09T13:51:17.125Z,13.73
2024-05-09T13:54:22.756Z,11.90
2024-05-09T13:57:27.418Z,9.88
2024-05-09T14:00:42.546Z,6.43
2024-05-09T14:03:51.430Z,14.15
2024-05-09T14:06:55.155Z,10.93
2024-05-09T14:09:58.749Z,16.88
2024-05-09T14:13:02.600Z,40.28
2024-05-09T14:16:07.283Z,22.02
2024-05-09T14:19:11.247Z,22.15
2024-05-09T14:22:14.924Z,22.50
2024-05-09T14:25:18.823Z,19.90
2024-05-09T14:28:26.919Z,18.80
2024-05-09T14:31:30.566Z,18.92
2024-05-09T14:34:34.199Z,18.08
2024-05-09T14:37:39.675Z,14.83
2024-05-09T14:40:44.261Z,15.20
2024-05-09T14:46:51.276Z,16.80
2024-05-09T14:49:55.022Z,13.03
2024-05-09T14:52:58.641Z,4.10
2024-05-09T14:56:02.339Z,5.65
2024-05-09T14:59:10.109Z,7.63
2024-05-09T15:02:13.756Z,10.75
2024-05-09T15:05:17.467Z,6.27
2024-05-09T15:08:21.183Z,7.03
2024-05-09T15:11:25.227Z,3.85
2024-05-09T15:14:28.706Z,8.70
2024-05-09T15:17:33.004Z,6.07
2024-05-09T15:20:37.772Z,4.55
2024-05-09T15:23:41.560Z,4.25
2024-05-09T15:26:45.189Z,4.35
2024-05-09T15:29:48.804Z,4.05
2024-05-09T15:32:52.691Z,5.15
2024-05-09T15:35:56.297Z,6.18
2024-05-09T15:39:01.312Z,7.07
2024-05-09T15:42:05.158Z,3.70
2024-05-09T15:45:08.845Z,7.43
2024-05-09T15:48:12.577Z,5.80
2024-05-09T15:51:16.230Z,5.93
2024-05-09T15:54:21.085Z,6.25
2024-05-09T15:57:25.684Z,4.93
2024-05-09T16:00:36.941Z,3.03
2024-05-09T16:06:48.939Z,2.65
2024-05-09T16:09:52.834Z,5.07
2024-05-09T16:12:56.451Z,4.90
2024-05-09T16:16:00.262Z,2.70
2024-05-09T16:19:03.813Z,4.63
2024-05-09T16:22:07.333Z,5.18
2024-05-09T16:25:10.978Z,3.55
2024-05-09T16:28:14.957Z,6.35
2024-05-09T16:31:18.632Z,3.58
2024-05-09T16:34:22.173Z,3.70
2024-05-09T16:37:27.524Z,3.55
2024-05-09T16:40:39.462Z,3.50
2024-05-09T16:43:44.660Z,5.07
2024-05-09T16:46:48.308Z,3.10
2024-05-09T16:49:52.949Z,3.17
2024-05-09T16:52:56.453Z,4.85
2024-05-09T16:55:59.977Z,3.30
2024-05-09T16:59:03.507Z,4.18
2024-05-09T17:02:07.599Z,3.47
2024-05-09T17:05:11.485Z,3.40
2024-05-09T17:08:16.464Z,5.88
2024-05-09T17:14:23.600Z,7.30
2024-05-09T17:17:27.303Z,4.50
2024-05-09T17:20:34.632Z,6.15
2024-05-09T17:23:40.258Z,6.78
2024-05-09T17:26:43.865Z,9.45
2024-05-09T17:29:47.430Z,5.40
2024-05-09T17:32:50.929Z,3.70
2024-05-09T17:35:54.466Z,2.63
2024-05-09T17:38:57.944Z,3.47
2024-05-09T17:42:01.364Z,2.88
2024-05-09T17:45:05.035Z,6.13
2024-05-09T17:48:10.795Z,3.90
2024-05-09T17:51:15.054Z,5.18
2024-05-09T17:54:18.580Z,5.50
2024-05-09T17:57:22.619Z,5.40
2024-05-09T18:00:37.371Z,4.25
2024-05-09T18:03:44.500Z,7.72
2024-05-09T18:06:48.182Z,7.38
2024-05-09T18:09:51.636Z,9.25
2024-05-09T18:12:55.217Z,6.32
2024-05-09T18:15:58.884Z,6.28
2024-05-09T18:19:02.786Z,8.13
2024-05-09T18:22:06.615Z,6.73
2024-05-09T18:25:11.698Z,5.97
2024-05-09T18:28:16.141Z,4.93
2024-05-09T18:31:19.981Z,2.40
2024-05-09T18:34:23.602Z,2.10
2024-05-09T18:37:27.603Z,2.10
2024-05-09T18:40:35.341Z,2.10
2024-05-09T18:43:45.194Z,3.20
2024-05-09T18:46:52.234Z,2.75
2024-05-09T18:49:55.753Z,2.28
2024-05-09T18:52:59.379Z,11.85
2024-05-09T18:56:02.796Z,2.13
2024-05-09T18:59:06.438Z,5.20
2024-05-09T19:02:10.602Z,1.92
2024-05-09T19:05:14.365Z,2.83
2024-05-09T19:08:17.985Z,2.25
2024-05-09T19:11:21.651Z,1.05
2024-05-09T19:14:26.173Z,1.02
2024-05-09T19:17:30.795Z,1.60
2024-05-09T19:20:36.878Z,1.20
2024-05-09T19:23:47.106Z,0.90
2024-05-09T19:26:56.841Z,2.00
2024-05-09T19:30:00.316Z,1.73
2024-05-09T19:33:04.047Z,2.45
2024-05-09T19:36:08.209Z,1.13
2024-05-09T19:39:12.327Z,2.15
2024-05-09T19:42:15.950Z,3.00
2024-05-09T19:45:19.435Z,3.38
2024-05-09T19:48:23.324Z,2.47
2024-05-09T19:51:26.801Z,2.10
2024-05-09T19:54:30.236Z,1.30
2024-05-09T19:57:33.818Z,4.30
2024-05-09T20:00:41.475Z,0.95
2024-05-09T20:03:46.959Z,1.35
2024-05-09T20:06:50.550Z,0.73
2024-05-09T20:09:54.082Z,1.90
2024-05-09T20:12:57.677Z,1.00
2024-05-09T20:16:02.174Z,1.20
2024-05-09T20:19:06.182Z,6.75
2024-05-09T20:22:10.113Z,5.32
2024-05-09T20:25:13.771Z,5.10
2024-05-09T20:28:17.500Z,0.60
2024-05-09T20:31:24.875Z,1.83
2024-05-09T20:34:28.544Z,3.05
2024-05-09T20:37:32.116Z,4.00
2024-05-09T20:40:38.613Z,4.07
2024-05-09T20:43:43.166Z,2.15
2024-05-09T20:46:47.104Z,4.72
2024-05-09T20:49:51.880Z,2.30
2024-05-09T20:55:58.308Z,1.65
2024-05-09T20:59:01.809Z,2.95
2024-05-09T21:02:05.736Z,3.17
2024-05-09T21:05:10.865Z,1.33
2024-05-09T21:08:14.703Z,3.50
2024-05-09T21:11:18.268Z,2.00
2024-05-09T21:14:21.812Z,2.25
2024-05-09T21:17:25.522Z,2.15
2024-05-09T21:20:31.673Z,0.93
2024-05-09T21:23:38.210Z,2.42
2024-05-09T21:26:41.701Z,4.20
2024-05-09T21:29:45.175Z,2.78
2024-05-09T21:32:49.238Z,5.28
2024-05-09T21:35:53.003Z,1.33
2024-05-09T21:38:56.517Z,5.40
2024-05-09T21:42:02.599Z,2.08
2024-05-09T21:45:07.039Z,3.38
2024-05-09T21:48:10.557Z,2.22
2024-05-09T21:51:15.240Z,1.13
2024-05-09T21:54:18.671Z,1.80
2024-05-09T21:57:22.710Z,3.80
2024-05-09T22:00:34.498Z,1.97
2024-05-09T22:03:41.161Z,3.63
2024-05-09T22:06:44.839Z,2.30
2024-05-09T22:09:48.586Z,1.67
2024-05-09T22:12:52.295Z,1.77
2024-05-09T22:15:55.894Z,2.00
2024-05-09T22:18:59.488Z,2.83
2024-05-09T22:22:03.168Z,5.05
2024-05-09T22:25:07.172Z,6.53
2024-05-09T22:28:10.864Z,2.30
2024-05-09T22:31:14.443Z,5.95
2024-05-09T22:34:18.052Z,2.72
2024-05-09T22:37:21.906Z,1.90
2024-05-09T22:40:37.911Z,2.03
2024-05-09T22:43:49.512Z,5.45
2024-05-09T22:46:53.058Z,2.35
2024-05-09T22:49:56.615Z,3.53
2024-05-09T22:53:00.031Z,2.00
2024-05-09T22:56:03.523Z,4.70
2024-05-09T22:59:07.866Z,3.42
2024-05-09T23:02:11.558Z,2.35
2024-05-09T23:05:15.619Z,4.22
2024-05-09T23:08:19.266Z,3.35
2024-05-09T23:11:22.798Z,2.17
2024-05-09T23:14:26.357Z,3.20
2024-05-09T23:17:30.214Z,5.22
2024-05-09T23:20:38.232Z,4.73
2024-05-09T23:23:43.858Z,4.90
2024-05-09T23:26:47.397Z,6.50
2024-05-09T23:29:50.951Z,3.47
2024-05-09T23:32:54.566Z,3.47
2024-05-09T23:35:58.240Z,4.28
2024-05-09T23:39:01.881Z,3.17
2024-05-09T23:42:05.866Z,2.72
2024-05-09T23:45:09.784Z,3.50
2024-05-09T23:48:13.768Z,2.97
2024-05-09T23:51:17.723Z,2.72
2024-05-09T23:54:21.380Z,2.08
2024-05-09T23:57:24.796Z,4.82
